sensor_id;sensor_type;location;lat;lon;timestamp;P1;durP1;ratioP1;P2;durP2;ratioP2
42726;SDS011;28372;56.832;60.658;2024-01-16T00:00:46;0.85;;;0.50;;
42726;SDS011;28372;56.832;60.658;2024-01-16T00:03:14;0.73;;;0.50;;
42726;SDS011;28372;56.832;60.658;2024-01-16T00:05:45;1.02;;;0.60;;
42726;SDS011;28372;56.832;60.658;2024-01-16T00:08:13;0.50;;;0.50;;
42726;SDS011;28372;56.832;60.658;2024-01-16T00:10:41;1.45;;;0.63;;
42726;SDS011;28372;56.832;60.658;2024-01-16T00:13:09;1.23;;;0.60;;
42726;SDS011;28372;56.832;60.658;2024-01-16T00:15:39;0.40;;;0.40;;
42726;SDS011;28372;56.832;60.658;2024-01-16T00:18:14;0.40;;;0.40;;
42726;SDS011;28372;56.832;60.658;2024-01-16T00:21:03;1.08;;;0.50;;
42726;SDS011;28372;56.832;60.658;2024-01-16T00:23:31;0.50;;;0.50;;
42726;SDS011;28372;56.832;60.658;2024-01-16T00:26:01;0.47;;;0.47;;
42726;SDS011;28372;56.832;60.658;2024-01-16T00:28:30;0.50;;;0.47;;
42726;SDS011;28372;56.832;60.658;2024-01-16T00:30:59;0.40;;;0.40;;
42726;SDS011;28372;56.832;60.658;2024-01-16T00:33:28;1.05;;;0.40;;
42726;SDS011;28372;56.832;60.658;2024-01-16T00:35:56;1.05;;;0.52;;
42726;SDS011;28372;56.832;60.658;2024-01-16T00:38:25;0.60;;;0.60;;
42726;SDS011;28372;56.832;60.658;2024-01-16T00:40:54;0.68;;;0.63;;
42726;SDS011;28372;56.832;60.658;2024-01-16T00:43:22;0.93;;;0.60;;
42726;SDS011;28372;56.832;60.658;2024-01-16T00:45:50;0.55;;;0.52;;
42726;SDS011;28372;56.832;60.658;2024-01-16T00:48:18;0.95;;;0.60;;
42726;SDS011;28372;56.832;60.658;2024-01-16T00:50:49;0.65;;;0.45;;
42726;SDS011;28372;56.832;60.658;2024-01-16T00:53:18;0.40;;;0.40;;
42726;SDS011;28372;56.832;60.658;2024-01-16T00:55:48;0.95;;;0.60;;
42726;SDS011;28372;56.832;60.658;2024-01-16T00:58:21;0.82;;;0.52;;
42726;SDS011;28372;56.832;60.658;2024-01-16T01:00:51;1.27;;;0.47;;
42726;SDS011;28372;56.832;60.658;2024-01-16T01:03:20;0.73;;;0.50;;
42726;SDS011;28372;56.832;60.658;2024-01-16T01:05:48;1.00;;;0.50;;
42726;SDS011;28372;56.832;60.658;2024-01-16T01:08:16;0.43;;;0.43;;
42726;SDS011;28372;56.832;60.658;2024-01-16T01:10:45;0.77;;;0.60;;
42726;SDS011;28372;56.832;60.658;2024-01-16T01:13:12;0.88;;;0.60;;
42726;SDS011;28372;56.832;60.658;2024-01-16T01:15:41;0.65;;;0.50;;
42726;SDS011;28372;56.832;60.658;2024-01-16T01:18:09;2.90;;;0.68;;
42726;SDS011;28372;56.832;60.658;2024-01-16T01:20:37;0.35;;;0.35;;
42726;SDS011;28372;56.832;60.658;2024-01-16T01:23:06;1.05;;;0.63;;
42726;SDS011;28372;56.832;60.658;2024-01-16T01:25:35;0.63;;;0.40;;
42726;SDS011;28372;56.832;60.658;2024-01-16T01:28:05;0.40;;;0.40;;
42726;SDS011;28372;56.832;60.658;2024-01-16T01:30:33;0.50;;;0.50;;
42726;SDS011;28372;56.832;60.658;2024-01-16T01:33:01;1.40;;;0.60;;
42726;SDS011;28372;56.832;60.658;2024-01-16T01:35:29;1.58;;;0.90;;
42726;SDS011;28372;56.832;60.658;2024-01-16T01:37:57;1.02;;;0.50;;
42726;SDS011;28372;56.832;60.658;2024-01-16T01:40:26;0.40;;;0.40;;
42726;SDS011;28372;56.832;60.658;2024-01-16T01:42:54;0.93;;;0.50;;
42726;SDS011;28372;56.832;60.658;2024-01-16T01:45:21;0.70;;;0.50;;
42726;SDS011;28372;56.832;60.658;2024-01-16T01:47:49;2.30;;;0.93;;
42726;SDS011;28372;56.832;60.658;2024-01-16T01:50:18;1.33;;;0.60;;
42726;SDS011;28372;56.832;60.658;2024-01-16T01:52:47;0.52;;;0.50;;
42726;SDS011;28372;56.832;60.658;2024-01-16T01:55:19;0.75;;;0.70;;
42726;SDS011;28372;56.832;60.658;2024-01-16T01:57:47;1.45;;;0.80;;
42726;SDS011;28372;56.832;60.658;2024-01-16T02:00:16;0.55;;;0.55;;
42726;SDS011;28372;56.832;60.658;2024-01-16T02:02:46;2.00;;;0.90;;
42726;SDS011;28372;56.832;60.658;2024-01-16T02:05:14;2.85;;;1.08;;
42726;SDS011;28372;56.832;60.658;2024-01-16T02:07:45;1.70;;;0.70;;
42726;SDS011;28372;56.832;60.658;2024-01-16T02:10:13;2.33;;;0.95;;
42726;SDS011;28372;56.832;60.658;2024-01-16T02:12:44;0.80;;;0.63;;
42726;SDS011;28372;56.832;60.658;2024-01-16T02:15:13;4.00;;;1.48;;
42726;SDS011;28372;56.832;60.658;2024-01-16T02:17:41;1.60;;;0.93;;
42726;SDS011;28372;56.832;60.658;2024-01-16T02:20:29;3.58;;;1.35;;
42726;SDS011;28372;56.832;60.658;2024-01-16T02:23:00;2.30;;;1.00;;
42726;SDS011;28372;56.832;60.658;2024-01-16T02:25:30;2.08;;;1.08;;
42726;SDS011;28372;56.832;60.658;2024-01-16T02:27:59;1.20;;;1.00;;
42726;SDS011;28372;56.832;60.658;2024-01-16T02:30:30;1.17;;;0.80;;
42726;SDS011;28372;56.832;60.658;2024-01-16T02:32:59;1.25;;;0.80;;
42726;SDS011;28372;56.832;60.658;2024-01-16T02:35:31;1.92;;;0.85;;
42726;SDS011;28372;56.832;60.658;2024-01-16T02:37:59;1.85;;;1.17;;
42726;SDS011;28372;56.832;60.658;2024-01-16T02:40:28;2.00;;;0.90;;
42726;SDS011;28372;56.832;60.658;2024-01-16T02:42:56;5.20;;;1.10;;
42726;SDS011;28372;56.832;60.658;2024-01-16T02:45:24;2.60;;;1.10;;
42726;SDS011;28372;56.832;60.658;2024-01-16T02:47:52;2.20;;;1.00;;
42726;SDS011;28372;56.832;60.658;2024-01-16T02:50:22;1.60;;;1.00;;
42726;SDS011;28372;56.832;60.658;2024-01-16T02:52:52;1.92;;;1.33;;
42726;SDS011;28372;56.832;60.658;2024-01-16T02:55:21;1.67;;;1.10;;
42726;SDS011;28372;56.832;60.658;2024-01-16T02:57:51;2.25;;;1.15;;
42726;SDS011;28372;56.832;60.658;2024-01-16T03:00:20;1.90;;;0.98;;
42726;SDS011;28372;56.832;60.658;2024-01-16T03:02:49;3.42;;;1.00;;
42726;SDS011;28372;56.832;60.658;2024-01-16T03:05:17;2.42;;;1.20;;
42726;SDS011;28372;56.832;60.658;2024-01-16T03:07:45;2.33;;;1.13;;
42726;SDS011;28372;56.832;60.658;2024-01-16T03:10:13;2.63;;;1.20;;
42726;SDS011;28372;56.832;60.658;2024-01-16T03:12:42;3.17;;;1.42;;
42726;SDS011;28372;56.832;60.658;2024-01-16T03:15:12;4.55;;;1.40;;
42726;SDS011;28372;56.832;60.658;2024-01-16T03:17:40;2.72;;;1.20;;
42726;SDS011;28372;56.832;60.658;2024-01-16T03:20:09;3.53;;;1.55;;
42726;SDS011;28372;56.832;60.658;2024-01-16T03:22:37;1.27;;;0.80;;
42726;SDS011;28372;56.832;60.658;2024-01-16T03:25:07;3.25;;;1.40;;
42726;SDS011;28372;56.832;60.658;2024-01-16T03:27:37;3.63;;;1.45;;
42726;SDS011;28372;56.832;60.658;2024-01-16T03:30:05;2.45;;;1.30;;
42726;SDS011;28372;56.832;60.658;2024-01-16T03:32:36;1.95;;;1.05;;
42726;SDS011;28372;56.832;60.658;2024-01-16T03:35:06;1.38;;;0.73;;
42726;SDS011;28372;56.832;60.658;2024-01-16T03:37:37;4.53;;;1.90;;
42726;SDS011;28372;56.832;60.658;2024-01-16T03:40:07;3.40;;;1.27;;
42726;SDS011;28372;56.832;60.658;2024-01-16T03:42:36;2.88;;;1.20;;
42726;SDS011;28372;56.832;60.658;2024-01-16T03:45:05;4.10;;;1.50;;
42726;SDS011;28372;56.832;60.658;2024-01-16T03:47:34;3.10;;;1.48;;
42726;SDS011;28372;56.832;60.658;2024-01-16T03:50:02;2.30;;;1.33;;
42726;SDS011;28372;56.832;60.658;2024-01-16T03:52:32;3.40;;;1.40;;
42726;SDS011;28372;56.832;60.658;2024-01-16T03:55:00;2.05;;;0.85;;
42726;SDS011;28372;56.832;60.658;2024-01-16T03:57:29;3.90;;;1.60;;
42726;SDS011;28372;56.832;60.658;2024-01-16T03:59:58;2.78;;;1.30;;
42726;SDS011;28372;56.832;60.658;2024-01-16T04:02:26;2.90;;;1.35;;
42726;SDS011;28372;56.832;60.658;2024-01-16T04:04:54;2.70;;;1.40;;
42726;SDS011;28372;56.832;60.658;2024-01-16T04:07:22;4.65;;;1.40;;
42726;SDS011;28372;56.832;60.658;2024-01-16T04:09:53;3.63;;;1.42;;
42726;SDS011;28372;56.832;60.658;2024-01-16T04:12:21;3.08;;;1.70;;
42726;SDS011;28372;56.832;60.658;2024-01-16T04:14:49;3.65;;;1.55;;
42726;SDS011;28372;56.832;60.658;2024-01-16T04:17:17;3.30;;;1.08;;
42726;SDS011;28372;56.832;60.658;2024-01-16T04:19:45;2.10;;;1.23;;
42726;SDS011;28372;56.832;60.658;2024-01-16T04:22:13;2.42;;;1.25;;
42726;SDS011;28372;56.832;60.658;2024-01-16T04:24:40;2.75;;;1.15;;
42726;SDS011;28372;56.832;60.658;2024-01-16T04:27:09;2.42;;;1.30;;
42726;SDS011;28372;56.832;60.658;2024-01-16T04:29:37;4.00;;;1.40;;
42726;SDS011;28372;56.832;60.658;2024-01-16T04:32:07;1.77;;;0.95;;
42726;SDS011;28372;56.832;60.658;2024-01-16T04:34:35;2.40;;;0.90;;
42726;SDS011;28372;56.832;60.658;2024-01-16T04:37:03;1.85;;;1.02;;
42726;SDS011;28372;56.832;60.658;2024-01-16T04:39:32;3.03;;;1.30;;
42726;SDS011;28372;56.832;60.658;2024-01-16T04:42:01;2.58;;;1.20;;
42726;SDS011;28372;56.832;60.658;2024-01-16T04:44:28;3.03;;;1.40;;
42726;SDS011;28372;56.832;60.658;2024-01-16T04:46:58;2.85;;;1.52;;
42726;SDS011;28372;56.832;60.658;2024-01-16T04:49:25;1.52;;;0.90;;
42726;SDS011;28372;56.832;60.658;2024-01-16T04:51:54;2.33;;;1.48;;
42726;SDS011;28372;56.832;60.658;2024-01-16T04:54:24;2.67;;;1.38;;
42726;SDS011;28372;56.832;60.658;2024-01-16T04:56:52;2.65;;;1.30;;
42726;SDS011;28372;56.832;60.658;2024-01-16T04:59:20;3.35;;;1.20;;
42726;SDS011;28372;56.832;60.658;2024-01-16T05:01:48;2.35;;;1.20;;
42726;SDS011;28372;56.832;60.658;2024-01-16T05:04:17;2.92;;;1.50;;
42726;SDS011;28372;56.832;60.658;2024-01-16T05:06:49;3.08;;;1.83;;
42726;SDS011;28372;56.832;60.658;2024-01-16T05:09:19;4.67;;;1.60;;
42726;SDS011;28372;56.832;60.658;2024-01-16T05:11:48;3.30;;;1.42;;
42726;SDS011;28372;56.832;60.658;2024-01-16T05:14:16;3.90;;;1.52;;
42726;SDS011;28372;56.832;60.658;2024-01-16T05:16:44;3.42;;;1.55;;
42726;SDS011;28372;56.832;60.658;2024-01-16T05:19:12;4.22;;;1.75;;
42726;SDS011;28372;56.832;60.658;2024-01-16T05:21:41;4.10;;;2.00;;
42726;SDS011;28372;56.832;60.658;2024-01-16T05:24:09;3.92;;;1.95;;
42726;SDS011;28372;56.832;60.658;2024-01-16T05:26:37;5.35;;;2.13;;
42726;SDS011;28372;56.832;60.658;2024-01-16T05:29:05;3.40;;;1.75;;
42726;SDS011;28372;56.832;60.658;2024-01-16T05:31:39;3.70;;;1.92;;
42726;SDS011;28372;56.832;60.658;2024-01-16T05:34:10;3.97;;;1.25;;
42726;SDS011;28372;56.832;60.658;2024-01-16T05:36:38;4.53;;;2.28;;
42726;SDS011;28372;56.832;60.658;2024-01-16T05:39:06;4.63;;;2.15;;
42726;SDS011;28372;56.832;60.658;2024-01-16T05:41:35;6.65;;;2.28;;
42726;SDS011;28372;56.832;60.658;2024-01-16T05:44:03;5.90;;;2.50;;
42726;SDS011;28372;56.832;60.658;2024-01-16T05:46:34;4.85;;;1.90;;
42726;SDS011;28372;56.832;60.658;2024-01-16T05:49:02;5.63;;;2.60;;
42726;SDS011;28372;56.832;60.658;2024-01-16T05:51:32;6.95;;;3.10;;
42726;SDS011;28372;56.832;60.658;2024-01-16T05:54:02;4.32;;;2.35;;
42726;SDS011;28372;56.832;60.658;2024-01-16T05:56:31;6.70;;;2.50;;
42726;SDS011;28372;56.832;60.658;2024-01-16T05:59:01;6.57;;;2.10;;
42726;SDS011;28372;56.832;60.658;2024-01-16T06:01:29;4.68;;;2.33;;
42726;SDS011;28372;56.832;60.658;2024-01-16T06:03:59;6.07;;;2.60;;
42726;SDS011;28372;56.832;60.658;2024-01-16T06:06:27;5.97;;;3.10;;
42726;SDS011;28372;56.832;60.658;2024-01-16T06:08:56;6.72;;;3.05;;
42726;SDS011;28372;56.832;60.658;2024-01-16T06:11:29;6.00;;;3.10;;
42726;SDS011;28372;56.832;60.658;2024-01-16T06:14:03;6.97;;;2.83;;
42726;SDS011;28372;56.832;60.658;2024-01-16T06:16:32;10.02;;;3.55;;
42726;SDS011;28372;56.832;60.658;2024-01-16T06:19:00;9.18;;;4.15;;
42726;SDS011;28372;56.832;60.658;2024-01-16T06:21:29;9.32;;;4.18;;
42726;SDS011;28372;56.832;60.658;2024-01-16T06:23:58;7.32;;;2.72;;
42726;SDS011;28372;56.832;60.658;2024-01-16T06:26:26;9.32;;;3.05;;
42726;SDS011;28372;56.832;60.658;2024-01-16T06:28:54;7.80;;;3.53;;
42726;SDS011;28372;56.832;60.658;2024-01-16T06:31:21;7.78;;;3.78;;
42726;SDS011;28372;56.832;60.658;2024-01-16T06:33:53;7.95;;;3.65;;
42726;SDS011;28372;56.832;60.658;2024-01-16T06:36:21;9.65;;;3.85;;
42726;SDS011;28372;56.832;60.658;2024-01-16T06:38:52;8.77;;;4.10;;
42726;SDS011;28372;56.832;60.658;2024-01-16T06:41:20;8.90;;;3.83;;
42726;SDS011;28372;56.832;60.658;2024-01-16T06:43:48;13.48;;;5.97;;
42726;SDS011;28372;56.832;60.658;2024-01-16T06:46:18;10.00;;;4.43;;
42726;SDS011;28372;56.832;60.658;2024-01-16T06:48:48;8.18;;;3.85;;
42726;SDS011;28372;56.832;60.658;2024-01-16T06:51:16;8.52;;;3.83;;
42726;SDS011;28372;56.832;60.658;2024-01-16T06:53:45;10.80;;;4.45;;
42726;SDS011;28372;56.832;60.658;2024-01-16T06:56:13;9.60;;;4.80;;
42726;SDS011;28372;56.832;60.658;2024-01-16T06:58:41;10.52;;;5.05;;
42726;SDS011;28372;56.832;60.658;2024-01-16T07:01:10;16.00;;;5.93;;
42726;SDS011;28372;56.832;60.658;2024-01-16T07:03:38;11.48;;;4.60;;
42726;SDS011;28372;56.832;60.658;2024-01-16T07:06:07;15.43;;;5.90;;
42726;SDS011;28372;56.832;60.658;2024-01-16T07:08:36;12.05;;;5.30;;
42726;SDS011;28372;56.832;60.658;2024-01-16T07:11:04;8.85;;;4.53;;
42726;SDS011;28372;56.832;60.658;2024-01-16T07:13:35;10.88;;;4.60;;
42726;SDS011;28372;56.832;60.658;2024-01-16T07:16:03;9.88;;;3.88;;
42726;SDS011;28372;56.832;60.658;2024-01-16T07:18:33;10.90;;;4.60;;
42726;SDS011;28372;56.832;60.658;2024-01-16T07:21:01;9.13;;;4.50;;
42726;SDS011;28372;56.832;60.658;2024-01-16T07:23:31;9.45;;;4.55;;
42726;SDS011;28372;56.832;60.658;2024-01-16T07:26:00;8.43;;;3.45;;
42726;SDS011;28372;56.832;60.658;2024-01-16T07:28:32;10.90;;;4.10;;
42726;SDS011;28372;56.832;60.658;2024-01-16T07:31:02;11.27;;;5.38;;
42726;SDS011;28372;56.832;60.658;2024-01-16T07:33:31;10.88;;;5.30;;
42726;SDS011;28372;56.832;60.658;2024-01-16T07:36:01;9.02;;;3.90;;
42726;SDS011;28372;56.832;60.658;2024-01-16T07:38:30;6.20;;;3.13;;
42726;SDS011;28372;56.832;60.658;2024-01-16T07:40:58;10.82;;;4.55;;
42726;SDS011;28372;56.832;60.658;2024-01-16T07:43:26;7.53;;;3.78;;
42726;SDS011;28372;56.832;60.658;2024-01-16T07:45:57;7.88;;;3.10;;
42726;SDS011;28372;56.832;60.658;2024-01-16T07:48:25;8.38;;;3.30;;
42726;SDS011;28372;56.832;60.658;2024-01-16T07:50:54;6.10;;;2.72;;
42726;SDS011;28372;56.832;60.658;2024-01-16T07:53:42;6.13;;;3.00;;
42726;SDS011;28372;56.832;60.658;2024-01-16T07:56:10;7.63;;;3.35;;
42726;SDS011;28372;56.832;60.658;2024-01-16T07:58:40;6.60;;;3.10;;
42726;SDS011;28372;56.832;60.658;2024-01-16T08:01:09;6.18;;;2.75;;
42726;SDS011;28372;56.832;60.658;2024-01-16T08:03:37;7.38;;;3.20;;
42726;SDS011;28372;56.832;60.658;2024-01-16T08:06:06;8.57;;;3.42;;
42726;SDS011;28372;56.832;60.658;2024-01-16T08:08:36;5.15;;;2.28;;
42726;SDS011;28372;56.832;60.658;2024-01-16T08:11:04;7.00;;;3.25;;
42726;SDS011;28372;56.832;60.658;2024-01-16T08:13:32;7.82;;;2.95;;
42726;SDS011;28372;56.832;60.658;2024-01-16T08:16:00;8.07;;;2.90;;
42726;SDS011;28372;56.832;60.658;2024-01-16T08:18:28;9.65;;;2.78;;
42726;SDS011;28372;56.832;60.658;2024-01-16T08:20:59;5.22;;;2.08;;
42726;SDS011;28372;56.832;60.658;2024-01-16T08:23:27;7.90;;;2.63;;
42726;SDS011;28372;56.832;60.658;2024-01-16T08:25:56;6.50;;;2.70;;
42726;SDS011;28372;56.832;60.658;2024-01-16T08:28:25;5.53;;;2.97;;
42726;SDS011;28372;56.832;60.658;2024-01-16T08:30:53;5.80;;;2.70;;
42726;SDS011;28372;56.832;60.658;2024-01-16T08:33:21;5.13;;;2.38;;
42726;SDS011;28372;56.832;60.658;2024-01-16T08:36:03;8.05;;;2.50;;
42726;SDS011;28372;56.832;60.658;2024-01-16T08:38:32;6.45;;;1.90;;
42726;SDS011;28372;56.832;60.658;2024-01-16T08:41:00;6.25;;;2.78;;
42726;SDS011;28372;56.832;60.658;2024-01-16T08:43:32;5.68;;;2.40;;
42726;SDS011;28372;56.832;60.658;2024-01-16T08:46:01;6.45;;;2.08;;
42726;SDS011;28372;56.832;60.658;2024-01-16T08:48:29;5.25;;;2.35;;
42726;SDS011;28372;56.832;60.658;2024-01-16T08:50:59;6.18;;;2.58;;
42726;SDS011;28372;56.832;60.658;2024-01-16T08:53:28;5.47;;;2.10;;
42726;SDS011;28372;56.832;60.658;2024-01-16T08:55:59;4.85;;;2.53;;
42726;SDS011;28372;56.832;60.658;2024-01-16T08:58:28;6.30;;;2.17;;
42726;SDS011;28372;56.832;60.658;2024-01-16T09:00:56;4.47;;;1.88;;
42726;SDS011;28372;56.832;60.658;2024-01-16T09:03:26;4.85;;;2.08;;
42726;SDS011;28372;56.832;60.658;2024-01-16T09:05:54;5.65;;;1.95;;
42726;SDS011;28372;56.832;60.658;2024-01-16T09:08:22;5.30;;;2.33;;
42726;SDS011;28372;56.832;60.658;2024-01-16T09:10:56;5.75;;;2.28;;
42726;SDS011;28372;56.832;60.658;2024-01-16T09:13:25;4.82;;;2.10;;
42726;SDS011;28372;56.832;60.658;2024-01-16T09:15:54;4.50;;;1.83;;
42726;SDS011;28372;56.832;60.658;2024-01-16T09:18:23;6.15;;;2.00;;
42726;SDS011;28372;56.832;60.658;2024-01-16T09:20:54;4.72;;;1.75;;
42726;SDS011;28372;56.832;60.658;2024-01-16T09:23:24;4.57;;;1.80;;
42726;SDS011;28372;56.832;60.658;2024-01-16T09:25:53;4.15;;;1.67;;
42726;SDS011;28372;56.832;60.658;2024-01-16T09:28:21;6.70;;;2.28;;
42726;SDS011;28372;56.832;60.658;2024-01-16T09:30:51;4.95;;;2.47;;
42726;SDS011;28372;56.832;60.658;2024-01-16T09:33:18;5.60;;;2.33;;
42726;SDS011;28372;56.832;60.658;2024-01-16T09:35:48;5.78;;;2.13;;
42726;SDS011;28372;56.832;60.658;2024-01-16T09:38:16;6.43;;;3.20;;
42726;SDS011;28372;56.832;60.658;2024-01-16T09:40:49;7.95;;;2.67;;
42726;SDS011;28372;56.832;60.658;2024-01-16T09:43:21;4.63;;;1.90;;
42726;SDS011;28372;56.832;60.658;2024-01-16T09:45:50;5.80;;;2.33;;
42726;SDS011;28372;56.832;60.658;2024-01-16T09:48:30;5.65;;;2.35;;
42726;SDS011;28372;56.832;60.658;2024-01-16T09:51:00;4.85;;;2.20;;
42726;SDS011;28372;56.832;60.658;2024-01-16T09:53:29;6.22;;;2.17;;
42726;SDS011;28372;56.832;60.658;2024-01-16T09:55:58;4.95;;;2.00;;
42726;SDS011;28372;56.832;60.658;2024-01-16T09:58:33;7.05;;;2.88;;
42726;SDS011;28372;56.832;60.658;2024-01-16T10:01:06;6.65;;;2.90;;
42726;SDS011;28372;56.832;60.658;2024-01-16T10:03:35;6.78;;;2.58;;
42726;SDS011;28372;56.832;60.658;2024-01-16T10:06:06;6.60;;;2.72;;
42726;SDS011;28372;56.832;60.658;2024-01-16T10:08:35;6.10;;;2.25;;
42726;SDS011;28372;56.832;60.658;2024-01-16T10:11:07;6.95;;;2.75;;
42726;SDS011;28372;56.832;60.658;2024-01-16T10:13:36;8.65;;;3.40;;
42726;SDS011;28372;56.832;60.658;2024-01-16T10:16:05;9.63;;;3.55;;
42726;SDS011;28372;56.832;60.658;2024-01-16T10:18:33;9.43;;;3.80;;
42726;SDS011;28372;56.832;60.658;2024-01-16T10:21:01;10.55;;;4.65;;
42726;SDS011;28372;56.832;60.658;2024-01-16T10:23:30;13.63;;;5.13;;
42726;SDS011;28372;56.832;60.658;2024-01-16T10:28:36;10.63;;;5.05;;
42726;SDS011;28372;56.832;60.658;2024-01-16T10:31:08;12.93;;;6.38;;
42726;SDS011;28372;56.832;60.658;2024-01-16T10:33:41;17.25;;;6.03;;
42726;SDS011;28372;56.832;60.658;2024-01-16T10:36:11;16.00;;;6.55;;
42726;SDS011;28372;56.832;60.658;2024-01-16T10:38:41;13.18;;;5.82;;
42726;SDS011;28372;56.832;60.658;2024-01-16T10:41:13;13.77;;;5.63;;
42726;SDS011;28372;56.832;60.658;2024-01-16T10:43:44;13.32;;;5.50;;
42726;SDS011;28372;56.832;60.658;2024-01-16T10:46:13;13.70;;;5.75;;
42726;SDS011;28372;56.832;60.658;2024-01-16T10:48:43;19.50;;;6.95;;
42726;SDS011;28372;56.832;60.658;2024-01-16T10:51:14;14.30;;;5.93;;
42726;SDS011;28372;56.832;60.658;2024-01-16T10:53:44;11.23;;;4.53;;
42726;SDS011;28372;56.832;60.658;2024-01-16T10:56:14;10.25;;;4.50;;
42726;SDS011;28372;56.832;60.658;2024-01-16T10:58:47;9.98;;;4.18;;
42726;SDS011;28372;56.832;60.658;2024-01-16T11:01:27;10.63;;;3.53;;
42726;SDS011;28372;56.832;60.658;2024-01-16T11:03:59;8.07;;;3.65;;
42726;SDS011;28372;56.832;60.658;2024-01-16T11:06:30;8.10;;;3.03;;
42726;SDS011;28372;56.832;60.658;2024-01-16T11:09:18;9.32;;;4.20;;
42726;SDS011;28372;56.832;60.658;2024-01-16T11:11:49;8.10;;;3.10;;
42726;SDS011;28372;56.832;60.658;2024-01-16T11:14:22;6.40;;;3.40;;
42726;SDS011;28372;56.832;60.658;2024-01-16T11:16:53;7.45;;;2.97;;
42726;SDS011;28372;56.832;60.658;2024-01-16T11:19:23;8.13;;;3.10;;
42726;SDS011;28372;56.832;60.658;2024-01-16T11:22:13;6.18;;;2.80;;
42726;SDS011;28372;56.832;60.658;2024-01-16T11:24:44;7.50;;;3.05;;
42726;SDS011;28372;56.832;60.658;2024-01-16T11:27:22;5.07;;;2.13;;
42726;SDS011;28372;56.832;60.658;2024-01-16T11:29:51;6.70;;;2.90;;
42726;SDS011;28372;56.832;60.658;2024-01-16T11:32:37;5.47;;;2.45;;
42726;SDS011;28372;56.832;60.658;2024-01-16T11:35:10;6.95;;;2.78;;
42726;SDS011;28372;56.832;60.658;2024-01-16T11:37:44;7.30;;;2.38;;
42726;SDS011;28372;56.832;60.658;2024-01-16T11:42:51;7.57;;;2.75;;
42726;SDS011;28372;56.832;60.658;2024-01-16T11:48:10;5.38;;;2.67;;
42726;SDS011;28372;56.832;60.658;2024-01-16T11:50:43;4.93;;;2.10;;
42726;SDS011;28372;56.832;60.658;2024-01-16T12:02:14;6.28;;;2.80;;
42726;SDS011;28372;56.832;60.658;2024-01-16T12:04:53;10.70;;;3.92;;
42726;SDS011;28372;56.832;60.658;2024-01-16T12:07:24;8.10;;;2.53;;
42726;SDS011;28372;56.832;60.658;2024-01-16T12:09:58;7.43;;;3.10;;
42726;SDS011;28372;56.832;60.658;2024-01-16T12:12:29;7.35;;;2.95;;
42726;SDS011;28372;56.832;60.658;2024-01-16T12:14:59;7.72;;;2.72;;
42726;SDS011;28372;56.832;60.658;2024-01-16T12:17:30;6.43;;;2.65;;
42726;SDS011;28372;56.832;60.658;2024-01-16T12:19:58;7.68;;;3.38;;
42726;SDS011;28372;56.832;60.658;2024-01-16T12:22:28;6.78;;;3.17;;
42726;SDS011;28372;56.832;60.658;2024-01-16T12:24:58;9.93;;;4.10;;
42726;SDS011;28372;56.832;60.658;2024-01-16T12:27:31;11.85;;;5.40;;
42726;SDS011;28372;56.832;60.658;2024-01-16T12:30:06;9.77;;;3.95;;
42726;SDS011;28372;56.832;60.658;2024-01-16T12:32:36;12.10;;;5.15;;
42726;SDS011;28372;56.832;60.658;2024-01-16T12:35:05;9.93;;;5.03;;
42726;SDS011;28372;56.832;60.658;2024-01-16T12:37:33;11.02;;;5.63;;
42726;SDS011;28372;56.832;60.658;2024-01-16T12:40:02;9.27;;;4.18;;
42726;SDS011;28372;56.832;60.658;2024-01-16T12:42:37;9.48;;;4.68;;
42726;SDS011;28372;56.832;60.658;2024-01-16T12:45:08;7.50;;;3.45;;
42726;SDS011;28372;56.832;60.658;2024-01-16T12:47:37;9.05;;;3.75;;
42726;SDS011;28372;56.832;60.658;2024-01-16T12:50:05;7.45;;;4.40;;
42726;SDS011;28372;56.832;60.658;2024-01-16T12:52:34;7.57;;;4.40;;
42726;SDS011;28372;56.832;60.658;2024-01-16T12:55:03;8.32;;;4.63;;
42726;SDS011;28372;56.832;60.658;2024-01-16T12:57:33;8.52;;;3.97;;
42726;SDS011;28372;56.832;60.658;2024-01-16T13:00:20;9.57;;;4.57;;
42726;SDS011;28372;56.832;60.658;2024-01-16T13:02:50;8.77;;;4.05;;
42726;SDS011;28372;56.832;60.658;2024-01-16T13:05:20;8.57;;;3.50;;
42726;SDS011;28372;56.832;60.658;2024-01-16T13:08:00;10.30;;;4.72;;
42726;SDS011;28372;56.832;60.658;2024-01-16T13:10:32;7.70;;;3.65;;
42726;SDS011;28372;56.832;60.658;2024-01-16T13:13:14;8.63;;;2.85;;
42726;SDS011;28372;56.832;60.658;2024-01-16T13:15:48;7.65;;;3.58;;
42726;SDS011;28372;56.832;60.658;2024-01-16T13:18:20;7.45;;;3.97;;
42726;SDS011;28372;56.832;60.658;2024-01-16T13:20:49;6.80;;;3.72;;
42726;SDS011;28372;56.832;60.658;2024-01-16T13:23:19;9.43;;;3.90;;
42726;SDS011;28372;56.832;60.658;2024-01-16T13:25:49;8.60;;;4.40;;
42726;SDS011;28372;56.832;60.658;2024-01-16T13:28:17;9.02;;;4.30;;
42726;SDS011;28372;56.832;60.658;2024-01-16T13:30:54;9.10;;;3.75;;
42726;SDS011;28372;56.832;60.658;2024-01-16T13:33:40;7.22;;;3.40;;
42726;SDS011;28372;56.832;60.658;2024-01-16T13:36:11;9.77;;;3.65;;
42726;SDS011;28372;56.832;60.658;2024-01-16T13:38:40;8.65;;;4.75;;
42726;SDS011;28372;56.832;60.658;2024-01-16T13:41:11;7.10;;;3.08;;
42726;SDS011;28372;56.832;60.658;2024-01-16T13:43:40;9.25;;;4.88;;
42726;SDS011;28372;56.832;60.658;2024-01-16T13:46:12;7.55;;;3.70;;
42726;SDS011;28372;56.832;60.658;2024-01-16T13:48:57;6.72;;;3.30;;
42726;SDS011;28372;56.832;60.658;2024-01-16T13:51:28;6.10;;;2.80;;
42726;SDS011;28372;56.832;60.658;2024-01-16T13:53:57;8.45;;;4.82;;
42726;SDS011;28372;56.832;60.658;2024-01-16T13:56:26;6.72;;;3.60;;
42726;SDS011;28372;56.832;60.658;2024-01-16T13:59:14;11.77;;;5.95;;
42726;SDS011;28372;56.832;60.658;2024-01-16T14:01:42;10.82;;;4.47;;
42726;SDS011;28372;56.832;60.658;2024-01-16T14:04:13;10.00;;;4.57;;
42726;SDS011;28372;56.832;60.658;2024-01-16T14:06:42;9.82;;;4.63;;
42726;SDS011;28372;56.832;60.658;2024-01-16T14:09:33;10.43;;;4.57;;
42726;SDS011;28372;56.832;60.658;2024-01-16T14:12:04;11.13;;;4.57;;
42726;SDS011;28372;56.832;60.658;2024-01-16T14:14:36;12.25;;;5.40;;
42726;SDS011;28372;56.832;60.658;2024-01-16T14:17:08;10.85;;;4.20;;
42726;SDS011;28372;56.832;60.658;2024-01-16T14:19:36;9.70;;;4.88;;
42726;SDS011;28372;56.832;60.658;2024-01-16T14:22:07;11.13;;;5.20;;
42726;SDS011;28372;56.832;60.658;2024-01-16T14:24:37;12.10;;;4.60;;
42726;SDS011;28372;56.832;60.658;2024-01-16T14:27:07;9.70;;;4.13;;
42726;SDS011;28372;56.832;60.658;2024-01-16T14:29:39;10.73;;;5.22;;
42726;SDS011;28372;56.832;60.658;2024-01-16T14:32:08;10.68;;;5.05;;
42726;SDS011;28372;56.832;60.658;2024-01-16T14:34:39;9.48;;;4.50;;
42726;SDS011;28372;56.832;60.658;2024-01-16T14:37:08;11.82;;;5.82;;
42726;SDS011;28372;56.832;60.658;2024-01-16T14:39:37;9.80;;;4.93;;
42726;SDS011;28372;56.832;60.658;2024-01-16T14:42:07;10.73;;;5.18;;
42726;SDS011;28372;56.832;60.658;2024-01-16T14:44:39;9.65;;;5.10;;
42726;SDS011;28372;56.832;60.658;2024-01-16T14:47:07;10.55;;;5.28;;
42726;SDS011;28372;56.832;60.658;2024-01-16T14:49:36;13.00;;;5.85;;
42726;SDS011;28372;56.832;60.658;2024-01-16T14:52:05;10.10;;;4.85;;
42726;SDS011;28372;56.832;60.658;2024-01-16T14:54:38;9.35;;;5.05;;
42726;SDS011;28372;56.832;60.658;2024-01-16T14:57:10;10.95;;;5.82;;
42726;SDS011;28372;56.832;60.658;2024-01-16T14:59:39;13.73;;;6.80;;
42726;SDS011;28372;56.832;60.658;2024-01-16T15:02:07;10.88;;;5.55;;
42726;SDS011;28372;56.832;60.658;2024-01-16T15:04:43;10.85;;;4.53;;
42726;SDS011;28372;56.832;60.658;2024-01-16T15:09:46;8.70;;;4.75;;